createdAt,value
2023-03-22T00:02:13.791Z,6.10
2023-03-22T00:04:42.414Z,6.07
2023-03-22T00:07:09.112Z,6.10
2023-03-22T00:09:36.524Z,6.73
2023-03-22T00:12:03.304Z,6.23
2023-03-22T00:14:29.898Z,6.13
2023-03-22T00:16:56.521Z,5.60
2023-03-22T00:19:23.137Z,7.10
2023-03-22T00:21:51.258Z,6.50
2023-03-22T00:24:17.875Z,5.93
2023-03-22T00:26:44.454Z,7.53
2023-03-22T00:29:11.332Z,6.37
2023-03-22T00:31:37.938Z,6.63
2023-03-22T00:34:04.608Z,7.47
2023-03-22T00:36:31.149Z,6.83
2023-03-22T00:38:57.718Z,7.30
2023-03-22T00:41:24.671Z,8.50
2023-03-22T00:43:51.958Z,7.83
2023-03-22T00:46:20.415Z,7.63
2023-03-22T00:48:47.459Z,7.13
2023-03-22T00:51:14.745Z,8.07
2023-03-22T00:53:43.534Z,8.27
2023-03-22T00:56:14.043Z,9.23
2023-03-22T00:58:42.239Z,9.53
2023-03-22T01:01:09.386Z,8.30
2023-03-22T01:03:36.203Z,8.47
2023-03-22T01:06:03.488Z,8.27
2023-03-22T01:08:33.119Z,8.90
2023-03-22T01:11:01.089Z,8.33
2023-03-22T01:13:28.048Z,8.50
2023-03-22T01:15:54.773Z,8.40
2023-03-22T01:18:21.567Z,8.03
2023-03-22T01:20:48.120Z,8.13
2023-03-22T01:23:14.852Z,7.73
2023-03-22T01:25:41.487Z,7.13
2023-03-22T01:28:08.612Z,7.80
2023-03-22T01:30:35.436Z,7.77
2023-03-22T01:33:02.150Z,7.80
2023-03-22T01:35:29.018Z,6.67
2023-03-22T01:37:55.719Z,7.33
2023-03-22T01:40:22.359Z,6.97
2023-03-22T01:42:48.908Z,7.40
2023-03-22T01:45:15.706Z,7.80
2023-03-22T01:48:17.722Z,6.97
2023-03-22T01:50:49.504Z,6.97
2023-03-22T01:53:18.911Z,8.03
2023-03-22T01:55:46.669Z,7.23
2023-03-22T01:58:17.901Z,6.90
2023-03-22T02:00:46.851Z,6.90
2023-03-22T02:03:17.695Z,6.33
2023-03-22T02:05:44.432Z,6.83
2023-03-22T02:08:14.780Z,6.90
2023-03-22T02:10:41.971Z,6.20
2023-03-22T02:13:47.813Z,6.60
2023-03-22T02:16:23.396Z,5.87
2023-03-22T02:19:29.188Z,5.83
2023-03-22T02:22:38.744Z,5.70
2023-03-22T02:25:26.362Z,5.33
2023-03-22T02:28:21.832Z,5.40
2023-03-22T02:31:03.662Z,4.80
2023-03-22T02:33:53.534Z,4.83
2023-03-22T02:37:02.008Z,4.80
2023-03-22T02:39:47.599Z,3.83
2023-03-22T02:42:20.029Z,4.17
2023-03-22T02:44:58.959Z,4.30
2023-03-22T02:48:03.500Z,3.70
2023-03-22T02:50:43.018Z,4.07
2023-03-22T02:53:18.595Z,4.10
2023-03-22T02:56:02.505Z,3.73
2023-03-22T02:58:37.060Z,4.17
2023-03-22T03:01:11.080Z,3.33
2023-03-22T03:03:39.460Z,3.80
2023-03-22T03:06:12.384Z,3.03
2023-03-22T03:08:40.143Z,3.00
2023-03-22T03:11:07.159Z,3.27
2023-03-22T03:13:33.726Z,3.30
2023-03-22T03:16:03.776Z,2.97
2023-03-22T03:18:37.579Z,3.00
2023-03-22T03:21:20.584Z,3.67
2023-03-22T03:24:13.242Z,3.43
2023-03-22T03:26:42.601Z,3.20
2023-03-22T03:29:25.862Z,2.90
2023-03-22T03:32:16.854Z,2.90
2023-03-22T03:35:01.123Z,2.80
2023-03-22T03:37:33.879Z,2.87
2023-03-22T03:40:17.766Z,2.63
2023-03-22T03:42:50.111Z,2.53
2023-03-22T03:45:18.132Z,2.77
2023-03-22T03:47:46.959Z,2.60
2023-03-22T03:50:15.986Z,2.67
2023-03-22T03:52:43.237Z,2.60
2023-03-22T03:55:10.169Z,2.77
2023-03-22T03:57:36.707Z,2.37
2023-03-22T04:00:04.880Z,2.53
2023-03-22T04:02:31.727Z,2.50
2023-03-22T04:04:58.374Z,2.70
2023-03-22T04:07:25.007Z,3.00
2023-03-22T04:09:51.581Z,2.57
2023-03-22T04:12:18.183Z,2.63
2023-03-22T04:14:44.907Z,2.80
2023-03-22T04:17:11.479Z,2.00
2023-03-22T04:19:38.035Z,2.30
2023-03-22T04:22:04.569Z,2.50
2023-03-22T04:24:31.129Z,2.40
2023-03-22T04:26:57.724Z,2.63
2023-03-22T04:29:24.558Z,2.50
2023-03-22T04:31:52.998Z,2.33
2023-03-22T04:34:19.602Z,2.77
2023-03-22T04:36:46.921Z,2.70
2023-03-22T04:39:13.576Z,2.43
2023-03-22T04:41:40.157Z,2.63
2023-03-22T04:44:07.601Z,2.37
2023-03-22T04:46:36.484Z,2.47
2023-03-22T04:49:04.292Z,2.37
2023-03-22T04:51:31.987Z,2.87
2023-03-22T04:53:58.802Z,1.97
2023-03-22T04:56:26.612Z,1.70
2023-03-22T04:58:53.295Z,2.00
2023-03-22T05:01:19.906Z,2.57
2023-03-22T05:03:47.380Z,2.50
2023-03-22T05:06:15.121Z,2.67
2023-03-22T05:08:42.027Z,2.30
2023-03-22T05:11:16.218Z,2.43
2023-03-22T05:13:43.261Z,2.83
2023-03-22T05:16:10.601Z,2.83
2023-03-22T05:18:42.184Z,2.80
2023-03-22T05:21:15.275Z,3.87
2023-03-22T05:23:43.091Z,3.50
2023-03-22T05:26:10.745Z,3.87
2023-03-22T05:28:37.555Z,3.13
2023-03-22T05:31:05.511Z,3.27
2023-03-22T05:33:34.602Z,3.60
2023-03-22T05:36:01.225Z,3.93
2023-03-22T05:38:28.801Z,3.27
2023-03-22T05:40:55.575Z,5.50
2023-03-22T05:43:22.129Z,4.30
2023-03-22T05:45:49.318Z,5.07
2023-03-22T05:48:16.051Z,4.37
2023-03-22T05:50:42.732Z,4.63
2023-03-22T05:53:09.835Z,4.40
2023-03-22T05:55:36.442Z,4.70
2023-03-22T05:58:04.920Z,5.27
2023-03-22T06:00:35.690Z,6.03
2023-03-22T06:03:03.742Z,5.30
2023-03-22T06:05:32.247Z,5.30
2023-03-22T06:07:59.550Z,5.23
2023-03-22T06:10:28.001Z,5.20
2023-03-22T06:12:55.343Z,5.10
2023-03-22T06:15:22.010Z,5.47
2023-03-22T06:17:48.904Z,5.83
2023-03-22T06:20:15.619Z,5.33
2023-03-22T06:22:42.725Z,5.27
2023-03-22T06:25:10.802Z,5.30
2023-03-22T06:27:37.792Z,5.03
2023-03-22T06:30:04.992Z,5.83
2023-03-22T06:32:31.574Z,5.57
2023-03-22T06:34:58.266Z,5.57
2023-03-22T06:37:25.305Z,6.17
2023-03-22T06:39:52.171Z,5.30
2023-03-22T06:42:19.165Z,4.90
2023-03-22T06:44:45.915Z,5.63
2023-03-22T06:47:12.984Z,5.57
2023-03-22T06:49:40.143Z,5.80
2023-03-22T06:52:07.319Z,5.63
2023-03-22T06:54:34.246Z,5.63
2023-03-22T06:57:01.045Z,6.07
2023-03-22T06:59:28.048Z,5.13
2023-03-22T07:01:54.763Z,5.17
2023-03-22T07:04:21.671Z,5.57
2023-03-22T07:06:48.370Z,4.60
2023-03-22T07:09:15.283Z,4.80
2023-03-22T07:11:42.022Z,4.50
2023-03-22T07:14:08.789Z,5.33
2023-03-22T07:16:35.508Z,4.80
2023-03-22T07:19:03.477Z,5.43
2023-03-22T07:21:30.352Z,5.20
2023-03-22T07:23:58.061Z,4.47
2023-03-22T07:26:26.171Z,4.60
2023-03-22T07:28:53.713Z,5.17
2023-03-22T07:31:20.418Z,4.73
2023-03-22T07:33:48.155Z,4.53
2023-03-22T07:36:14.810Z,4.07
2023-03-22T07:38:41.816Z,4.33
2023-03-22T07:41:08.514Z,4.23
2023-03-22T07:43:47.307Z,4.53
2023-03-22T07:46:19.378Z,4.87
2023-03-22T07:48:46.035Z,4.20
2023-03-22T07:51:12.606Z,3.90
2023-03-22T07:53:39.195Z,4.00
2023-03-22T07:56:06.407Z,3.83
2023-03-22T07:58:32.996Z,3.70
2023-03-22T08:01:05.481Z,4.10
2023-03-22T08:03:32.134Z,3.83
2023-03-22T08:06:06.406Z,3.67
2023-03-22T08:08:34.137Z,3.57
2023-03-22T08:11:00.984Z,4.07
2023-03-22T08:13:27.894Z,3.77
2023-03-22T08:15:54.540Z,3.27
2023-03-22T08:18:21.216Z,3.63
2023-03-22T08:20:54.019Z,3.57
2023-03-22T08:23:28.847Z,3.17
2023-03-22T08:26:01.683Z,3.23
2023-03-22T08:28:28.299Z,2.87
2023-03-22T08:30:54.973Z,3.27
2023-03-22T08:33:23.499Z,2.90
2023-03-22T08:35:50.946Z,3.50
2023-03-22T08:38:18.396Z,3.40
2023-03-22T08:40:48.132Z,3.00
2023-03-22T08:43:14.686Z,3.07
2023-03-22T08:45:41.589Z,3.50
2023-03-22T08:48:08.433Z,3.03
2023-03-22T08:50:35.241Z,2.67
2023-03-22T08:53:01.814Z,3.17
2023-03-22T08:55:28.385Z,2.47
2023-03-22T08:57:58.731Z,3.00
2023-03-22T09:00:25.458Z,3.00
2023-03-22T09:02:52.251Z,3.47
2023-03-22T09:05:19.551Z,3.03
2023-03-22T09:07:46.250Z,2.80
2023-03-22T09:10:12.975Z,3.10
2023-03-22T09:12:39.652Z,2.73
2023-03-22T09:15:07.444Z,2.40
2023-03-22T09:17:34.323Z,2.70
2023-03-22T09:20:12.016Z,2.30
2023-03-22T09:22:40.252Z,2.50
2023-03-22T09:25:07.697Z,2.77
2023-03-22T09:27:34.306Z,2.30
2023-03-22T09:30:01.076Z,2.53
2023-03-22T09:32:27.660Z,2.33
2023-03-22T09:34:54.334Z,2.07
2023-03-22T09:37:21.051Z,1.90
2023-03-22T09:39:47.643Z,1.87
2023-03-22T09:42:38.453Z,1.83
2023-03-22T09:45:12.727Z,1.73
2023-03-22T09:47:52.592Z,2.53
2023-03-22T09:50:25.317Z,1.73
2023-03-22T09:52:53.284Z,1.67
2023-03-22T09:55:43.222Z,1.47
2023-03-22T09:58:28.439Z,1.47
2023-03-22T10:01:18.523Z,1.60
2023-03-22T10:03:53.017Z,1.50
2023-03-22T10:06:23.276Z,1.80
2023-03-22T10:09:06.866Z,1.40
2023-03-22T10:11:56.236Z,1.60
2023-03-22T10:14:34.124Z,1.30
2023-03-22T10:17:05.889Z,1.20
2023-03-22T10:19:47.549Z,1.63
2023-03-22T10:22:18.348Z,1.50
2023-03-22T10:24:48.412Z,1.40
2023-03-22T10:27:17.842Z,1.50
2023-03-22T10:29:53.417Z,1.20
2023-03-22T10:32:29.365Z,1.50
2023-03-22T10:34:56.633Z,1.37
2023-03-22T10:37:33.293Z,1.40
2023-03-22T10:40:08.058Z,1.17
2023-03-22T10:42:37.865Z,1.27
2023-03-22T10:45:08.399Z,1.80
2023-03-22T10:47:45.973Z,1.30
2023-03-22T10:50:19.654Z,1.10
2023-03-22T10:52:56.562Z,1.47
2023-03-22T10:55:24.770Z,1.33
2023-03-22T10:58:21.240Z,1.50
2023-03-22T11:00:53.603Z,1.00
2023-03-22T11:03:27.375Z,1.57
2023-03-22T11:06:15.817Z,2.03
2023-03-22T11:08:53.930Z,1.47
2023-03-22T11:11:28.439Z,1.40
2023-03-22T11:14:07.138Z,1.73
2023-03-22T11:16:53.851Z,1.33
2023-03-22T11:19:28.011Z,1.37
2023-03-22T11:21:57.441Z,1.63
2023-03-22T11:24:30.352Z,1.30
2023-03-22T11:27:18.783Z,1.30
2023-03-22T11:29:49.005Z,1.20
2023-03-22T11:32:35.955Z,1.43
2023-03-22T11:35:18.416Z,1.40
2023-03-22T11:37:50.912Z,1.37
2023-03-22T11:40:27.225Z,1.40
2023-03-22T11:42:56.891Z,1.70
2023-03-22T11:45:36.640Z,1.60
2023-03-22T11:48:08.698Z,1.60
2023-03-22T11:50:38.425Z,1.63
2023-03-22T11:53:08.797Z,1.50
2023-03-22T11:55:36.593Z,1.40
2023-03-22T11:58:04.594Z,1.50
2023-03-22T12:00:37.169Z,1.53
2023-03-22T12:03:05.817Z,1.70
2023-03-22T12:05:36.233Z,1.87
2023-03-22T12:08:25.095Z,1.97
2023-03-22T12:11:00.788Z,1.13
2023-03-22T12:13:43.833Z,1.50
2023-03-22T12:16:14.674Z,1.20
2023-03-22T12:18:50.504Z,1.67
2023-03-22T12:21:17.287Z,1.93
2023-03-22T12:23:43.981Z,1.60
2023-03-22T12:26:21.518Z,1.50
2023-03-22T12:29:00.378Z,1.73
2023-03-22T12:31:33.211Z,1.73
2023-03-22T12:34:06.128Z,1.97
2023-03-22T12:36:56.003Z,1.77
2023-03-22T12:39:31.463Z,1.97
2023-03-22T12:42:03.835Z,1.50
2023-03-22T12:44:39.219Z,2.13
2023-03-22T12:47:30.543Z,2.07
2023-03-22T12:50:13.461Z,1.77
2023-03-22T12:52:47.592Z,1.60
2023-03-22T12:55:21.105Z,1.60
2023-03-22T12:57:51.345Z,1.50
2023-03-22T13:00:19.096Z,1.63
2023-03-22T13:03:10.393Z,1.40
2023-03-22T13:05:37.640Z,1.70
2023-03-22T13:08:05.659Z,1.60
2023-03-22T13:10:36.677Z,1.50
2023-03-22T13:13:21.135Z,1.60
2023-03-22T13:16:11.139Z,1.87
2023-03-22T13:18:38.374Z,1.57
2023-03-22T13:21:16.702Z,1.80
2023-03-22T13:23:52.490Z,1.70
2023-03-22T13:26:19.815Z,1.47
2023-03-22T13:29:01.895Z,1.70
2023-03-22T13:31:46.861Z,1.70
2023-03-22T13:34:17.774Z,1.80
2023-03-22T13:36:56.417Z,1.47
2023-03-22T13:39:25.363Z,1.80
2023-03-22T13:42:13.850Z,1.87
2023-03-22T13:44:45.986Z,1.93
2023-03-22T13:47:37.922Z,1.83
2023-03-22T13:50:28.960Z,2.00
2023-03-22T13:53:21.300Z,1.73
2023-03-22T13:55:53.679Z,1.70
2023-03-22T13:58:48.041Z,1.77
2023-03-22T14:01:37.425Z,1.70
2023-03-22T14:04:12.183Z,2.10
2023-03-22T14:07:08.229Z,1.67
2023-03-22T14:09:44.033Z,1.87
2023-03-22T14:12:19.233Z,1.83
2023-03-22T14:14:50.421Z,2.40
2023-03-22T14:17:41.945Z,1.93
2023-03-22T14:20:15.646Z,1.50
